Patuxent River Naval Air Station/Trapnell Field Aiport
KNHK : now visible

Airfield :











YOU CAN JOIN US ON...

 
LOGIN :

Register | Disclaimer

   EN    FR    IT 

 









Legend :    VFR   Marginal VFR   IFR   Intensive IFR   Very Intensive IFR
Visi :
Ceiling :
>= 8 km
>= 3000ft
5 to 8 km
1000 to 3000 ft
1500m to 5 km
500 to 1000 ft
800 to 1500m
200 to 500 ft
< 800m
< 200 ft
Symbols :   Thunderstorms  Fog  Heavy snow  Heavy precipitations  Wind > 20 kt






- Airport Elevation : 39 ft


KNHK - Patuxent River Naval Air Station/Trapnell Field Aiport

CURRENT METAR :
  • 061152Z 28008KT 10SM FEW010 FEW120 SCT280 24/22 A2985 RMK AO2 SLP110 70010 T02390222 10239 20228 53005 $

EXPIRED METARs :
  • 061107Z 27005KT 10SM BKN120 BKN280 23/22 A2985 RMK AO2 T02280217 $
  • 061052Z AUTO 29003KT 10SM BKN110 23/22 A2985 RMK AO2 SLP107 T02280217 $
  • 060952Z AUTO 30005KT 10SM CLR 23/21 A2984 RMK AO2 CIG 110 RY24 SLP104 T02280211 $
  • 060917Z AUTO 27003KT 10SM SCT006 BKN075 BKN090 23/22 A2984 RMK AO2 T02280217 $

TAF AMD TAF KNHK
Valid from the 06 at 09:00 until the 07 at 07:00 UTC


0609/0707 25005KT 9999 VCTS SCT008CB BKN050 BKN100 QNH2978INS
TEMPO 0609/0611 VRB05KT 6000 RA BR BKN005 BKN025
FM061100 31005KT 8000 BR SCT020 SCT045 BKN250 QNH2971INS
FM062000 25007KT 9999 VCTS FEW035CB SCT070 BKN250 QNH2973INS AUTOMATED SENSOR METWATCH 0609 TIL 0611 T22/0611Z T31/0620Z FN00223
KZDC FIR / North America



MET'MAP, your aeronautical weather chart ! - Copyright ORBIFLY December 2007 - Disclaimer

ORBIFLY MET'MAP TEAM :

Programming & Development : Alexandra Zaïnal
Concept & original design : Baudouin d'Aumeries
Assistance for programming : Marc-Olivier Méhu
Technical & hardware support : Manuel Goepfert

Contact : metmap@orbifly.com




SOURCES & CREDITS :

   NOAA       Earth
Advisory